createdAt,value
2023-03-25T00:01:09.195Z,0.70
2023-03-25T00:03:41.820Z,0.70
2023-03-25T00:06:10.557Z,0.83
2023-03-25T00:08:37.247Z,0.90
2023-03-25T00:11:04.513Z,0.90
2023-03-25T00:13:34.153Z,0.90
2023-03-25T00:16:02.199Z,1.00
2023-03-25T00:18:33.572Z,1.70
2023-03-25T00:21:04.667Z,1.30
2023-03-25T00:23:32.152Z,1.60
2023-03-25T00:26:01.779Z,1.63
2023-03-25T00:28:33.324Z,0.80
2023-03-25T00:31:02.653Z,0.90
2023-03-25T00:33:29.783Z,1.10
2023-03-25T00:35:59.412Z,1.30
2023-03-25T00:38:33.376Z,1.50
2023-03-25T00:41:09.220Z,0.83
2023-03-25T00:43:35.704Z,1.23
2023-03-25T00:46:02.147Z,1.50
2023-03-25T00:48:28.626Z,1.30
2023-03-25T00:50:55.272Z,0.77
2023-03-25T00:53:21.725Z,1.13
2023-03-25T00:55:48.264Z,1.50
2023-03-25T00:58:14.848Z,0.97
2023-03-25T01:00:41.352Z,1.97
2023-03-25T01:03:09.759Z,1.17
2023-03-25T01:05:36.224Z,1.10
2023-03-25T01:08:02.744Z,1.30
2023-03-25T01:10:29.409Z,1.23
2023-03-25T01:12:56.417Z,1.00
2023-03-25T01:15:22.926Z,1.30
2023-03-25T01:17:49.476Z,1.20
2023-03-25T01:20:16.127Z,0.70
2023-03-25T01:22:42.573Z,0.90
2023-03-25T01:25:09.216Z,0.90
2023-03-25T01:27:36.236Z,1.00
2023-03-25T01:30:02.841Z,1.00
2023-03-25T01:32:29.666Z,1.10
2023-03-25T01:34:56.350Z,0.80
2023-03-25T01:37:25.591Z,1.00
2023-03-25T01:39:51.979Z,1.07
2023-03-25T01:42:18.586Z,0.90
2023-03-25T01:44:44.966Z,0.87
2023-03-25T01:47:11.470Z,0.90
2023-03-25T01:49:44.381Z,1.07
2023-03-25T01:52:21.272Z,1.10
2023-03-25T01:54:50.833Z,0.90
2023-03-25T01:57:21.947Z,1.17
2023-03-25T01:59:49.738Z,1.07
2023-03-25T02:02:18.853Z,1.40
2023-03-25T02:05:12.109Z,0.87
2023-03-25T02:07:43.043Z,0.90
2023-03-25T02:10:11.467Z,0.77
2023-03-25T02:12:37.867Z,0.90
2023-03-25T02:15:08.892Z,1.00
2023-03-25T02:18:08.046Z,1.30
2023-03-25T02:21:03.425Z,1.10
2023-03-25T02:23:59.239Z,1.13
2023-03-25T02:27:04.876Z,1.30
2023-03-25T02:29:49.457Z,1.13
2023-03-25T02:32:44.153Z,1.33
2023-03-25T02:35:16.325Z,1.20
2023-03-25T02:38:00.146Z,1.07
2023-03-25T02:40:31.833Z,1.13
2023-03-25T02:43:03.692Z,0.97
2023-03-25T02:45:34.414Z,1.20
2023-03-25T02:48:07.780Z,1.17
2023-03-25T02:50:43.696Z,0.80
2023-03-25T02:53:15.379Z,1.13
2023-03-25T02:55:43.892Z,1.23
2023-03-25T02:58:16.730Z,0.80
2023-03-25T03:00:43.518Z,1.20
2023-03-25T03:03:11.005Z,1.00
2023-03-25T03:05:45.534Z,1.27
2023-03-25T03:08:19.086Z,1.40
2023-03-25T03:10:58.548Z,1.40
2023-03-25T03:13:40.253Z,1.10
2023-03-25T03:16:13.258Z,1.20
2023-03-25T03:18:51.935Z,0.90
2023-03-25T03:21:23.646Z,1.97
2023-03-25T03:24:06.056Z,1.17
2023-03-25T03:26:40.451Z,1.03
2023-03-25T03:29:40.405Z,0.90
2023-03-25T03:32:13.189Z,0.90
2023-03-25T03:34:51.228Z,1.10
2023-03-25T03:37:23.763Z,1.20
2023-03-25T03:39:53.117Z,1.00
2023-03-25T03:42:29.453Z,1.20
2023-03-25T03:45:02.455Z,1.00
2023-03-25T03:47:34.097Z,1.00
2023-03-25T03:50:09.271Z,1.23
2023-03-25T03:52:45.118Z,0.77
2023-03-25T03:55:19.029Z,0.70
2023-03-25T03:57:53.736Z,0.90
2023-03-25T04:00:28.860Z,0.90
2023-03-25T04:03:01.742Z,0.73
2023-03-25T04:05:31.056Z,0.80
2023-03-25T04:08:02.509Z,1.07
2023-03-25T04:10:59.174Z,0.80
2023-03-25T04:13:32.438Z,1.10
2023-03-25T04:16:00.323Z,0.73
2023-03-25T04:18:28.566Z,0.80
2023-03-25T04:20:55.758Z,0.70
2023-03-25T04:23:22.643Z,0.70
2023-03-25T04:25:55.424Z,1.13
2023-03-25T04:28:23.950Z,0.70
2023-03-25T04:30:55.503Z,1.10
2023-03-25T04:33:23.039Z,0.80
2023-03-25T04:35:51.125Z,0.90
2023-03-25T04:38:19.198Z,0.93
2023-03-25T04:40:48.851Z,0.73
2023-03-25T04:43:16.662Z,0.80
2023-03-25T04:45:49.657Z,1.00
2023-03-25T04:48:25.972Z,1.00
2023-03-25T04:50:52.444Z,0.80
2023-03-25T04:53:18.979Z,0.83
2023-03-25T04:55:48.140Z,0.80
2023-03-25T04:58:15.950Z,1.07
2023-03-25T05:00:44.905Z,1.10
2023-03-25T05:03:11.813Z,0.60
2023-03-25T05:05:38.524Z,0.80
2023-03-25T05:08:05.083Z,0.70
2023-03-25T05:10:31.682Z,0.80
2023-03-25T05:13:03.808Z,1.50
2023-03-25T05:15:35.198Z,0.70
2023-03-25T05:18:02.498Z,1.00
2023-03-25T05:20:29.008Z,0.83
2023-03-25T05:22:57.400Z,0.80
2023-03-25T05:25:23.994Z,0.97
2023-03-25T05:27:50.389Z,0.70
2023-03-25T05:30:17.114Z,0.90
2023-03-25T05:32:45.808Z,0.90
2023-03-25T05:35:12.608Z,0.80
2023-03-25T05:37:38.995Z,0.83
2023-03-25T05:40:14.572Z,0.80
2023-03-25T05:42:46.824Z,1.03
2023-03-25T05:45:13.280Z,0.97
2023-03-25T05:47:40.228Z,1.10
2023-03-25T05:50:08.253Z,0.90
2023-03-25T05:52:36.641Z,0.90
2023-03-25T05:55:04.931Z,0.90
2023-03-25T05:57:31.441Z,1.00
2023-03-25T05:59:57.872Z,1.50
2023-03-25T06:02:24.356Z,1.23
2023-03-25T06:04:51.117Z,1.40
2023-03-25T06:07:20.759Z,1.50
2023-03-25T06:09:47.593Z,2.37
2023-03-25T06:12:16.685Z,1.47
2023-03-25T06:14:45.349Z,1.00
2023-03-25T06:17:24.449Z,1.33
2023-03-25T06:19:53.885Z,1.17
2023-03-25T06:22:21.977Z,1.67
2023-03-25T06:24:52.405Z,0.90
2023-03-25T06:27:19.845Z,0.90
2023-03-25T06:29:47.149Z,1.00
2023-03-25T06:32:14.511Z,0.90
2023-03-25T06:34:42.801Z,0.87
2023-03-25T06:37:10.162Z,0.80
2023-03-25T06:39:40.191Z,1.00
2023-03-25T06:42:07.410Z,1.50
2023-03-25T06:44:33.993Z,1.40
2023-03-25T06:47:02.396Z,1.70
2023-03-25T06:49:29.158Z,1.30
2023-03-25T06:51:55.600Z,1.10
2023-03-25T06:54:22.725Z,0.80
2023-03-25T06:56:49.307Z,1.33
2023-03-25T06:59:15.870Z,1.00
2023-03-25T07:01:43.053Z,1.57
2023-03-25T07:04:09.624Z,1.00
2023-03-25T07:06:36.131Z,0.97
2023-03-25T07:09:03.047Z,0.70
2023-03-25T07:11:30.983Z,0.90
2023-03-25T07:13:57.719Z,0.80
2023-03-25T07:16:24.431Z,0.93
2023-03-25T07:18:51.481Z,0.70
2023-03-25T07:21:19.071Z,0.70
2023-03-25T07:23:45.542Z,0.80
2023-03-25T07:26:13.441Z,0.70
2023-03-25T07:28:40.792Z,0.63
2023-03-25T07:31:09.062Z,1.00
2023-03-25T07:33:36.551Z,0.53
2023-03-25T07:36:04.616Z,0.80
2023-03-25T07:38:31.073Z,0.80
2023-03-25T07:40:57.603Z,0.70
2023-03-25T07:43:24.229Z,1.00
2023-03-25T07:45:50.906Z,1.00
2023-03-25T07:48:17.413Z,0.80
2023-03-25T07:50:45.714Z,0.90
2023-03-25T07:53:12.120Z,0.80
2023-03-25T07:55:38.629Z,0.80
2023-03-25T07:58:05.217Z,1.00
2023-03-25T08:00:31.793Z,1.00
2023-03-25T08:02:58.381Z,1.10
2023-03-25T08:05:24.954Z,1.00
2023-03-25T08:07:52.716Z,0.90
2023-03-25T08:10:19.383Z,0.80
2023-03-25T08:12:46.047Z,0.80
2023-03-25T08:15:13.659Z,0.83
2023-03-25T08:17:40.734Z,0.80
2023-03-25T08:20:08.533Z,0.80
2023-03-25T08:22:36.223Z,0.70
2023-03-25T08:25:02.740Z,0.70
2023-03-25T08:27:29.232Z,0.50
2023-03-25T08:29:59.983Z,0.60
2023-03-25T08:32:28.002Z,0.77
2023-03-25T08:34:55.059Z,0.70
2023-03-25T08:37:22.275Z,0.83
2023-03-25T08:39:50.514Z,0.80
2023-03-25T08:42:17.425Z,0.77
2023-03-25T08:44:43.834Z,0.80
2023-03-25T08:47:10.350Z,0.50
2023-03-25T08:49:36.760Z,0.80
2023-03-25T08:52:04.320Z,0.50
2023-03-25T08:54:30.988Z,0.60
2023-03-25T08:56:57.493Z,0.70
2023-03-25T08:59:24.000Z,1.07
2023-03-25T09:01:50.616Z,2.00
2023-03-25T09:04:17.175Z,0.80
2023-03-25T09:06:47.886Z,0.67
2023-03-25T09:09:30.213Z,1.20
2023-03-25T09:11:56.910Z,0.90
2023-03-25T09:14:23.376Z,0.70
2023-03-25T09:16:49.825Z,0.60
2023-03-25T09:19:16.313Z,0.80
2023-03-25T09:21:42.779Z,0.60
2023-03-25T09:24:09.825Z,0.80
2023-03-25T09:26:37.004Z,0.70
2023-03-25T09:29:03.496Z,0.60
2023-03-25T09:31:30.486Z,1.00
2023-03-25T09:33:57.015Z,0.60
2023-03-25T09:36:23.377Z,0.77
2023-03-25T09:38:49.803Z,0.73
2023-03-25T09:42:01.707Z,0.97
2023-03-25T09:44:33.458Z,0.70
2023-03-25T09:47:01.985Z,1.00
2023-03-25T09:49:40.248Z,0.70
2023-03-25T09:52:13.154Z,1.10
2023-03-25T09:54:54.863Z,0.80
2023-03-25T09:57:27.161Z,1.30
2023-03-25T09:59:56.349Z,1.40
2023-03-25T10:03:01.381Z,0.93
2023-03-25T10:05:48.717Z,1.20
2023-03-25T10:08:27.472Z,1.17
2023-03-25T10:10:59.543Z,1.17
2023-03-25T10:13:44.784Z,1.40
2023-03-25T10:16:18.047Z,1.20
2023-03-25T10:18:55.202Z,1.00
2023-03-25T10:21:31.111Z,1.33
2023-03-25T10:24:19.517Z,1.27
2023-03-25T10:26:56.084Z,1.40
2023-03-25T10:29:30.391Z,2.60
2023-03-25T10:32:02.732Z,1.27
2023-03-25T10:34:39.130Z,1.30
2023-03-25T10:37:12.625Z,1.20
2023-03-25T10:39:45.356Z,1.23
2023-03-25T10:42:24.576Z,1.40
2023-03-25T10:44:51.256Z,1.50
2023-03-25T10:47:26.681Z,1.10
2023-03-25T10:49:55.227Z,1.80
2023-03-25T10:52:21.819Z,1.20
2023-03-25T10:54:53.437Z,1.40
2023-03-25T10:57:27.742Z,1.20
2023-03-25T11:00:01.584Z,1.40
2023-03-25T11:02:31.210Z,1.13
2023-03-25T11:05:01.844Z,1.40
2023-03-25T11:07:40.115Z,1.53
2023-03-25T11:10:11.435Z,1.70
2023-03-25T11:15:14.248Z,1.43
2023-03-25T11:17:43.999Z,1.50
2023-03-25T11:20:20.571Z,1.50
2023-03-25T11:22:51.416Z,0.87
2023-03-25T11:25:26.838Z,1.30
2023-03-25T11:27:58.208Z,1.20
2023-03-25T11:30:26.613Z,1.70
2023-03-25T11:33:03.174Z,1.70
2023-03-25T11:35:34.619Z,1.87
2023-03-25T11:38:12.929Z,2.47
2023-03-25T11:40:49.880Z,1.33
2023-03-25T11:43:23.801Z,1.30
2023-03-25T11:45:51.154Z,1.17
2023-03-25T11:48:21.999Z,1.23
2023-03-25T11:50:54.076Z,1.00
2023-03-25T11:53:22.556Z,1.30
2023-03-25T11:55:55.407Z,0.90
2023-03-25T11:58:28.553Z,0.90
2023-03-25T12:01:03.840Z,0.70
2023-03-25T12:03:35.240Z,0.83
2023-03-25T12:06:11.335Z,0.90
2023-03-25T12:08:57.725Z,0.80
2023-03-25T12:11:30.291Z,0.80
2023-03-25T12:14:10.943Z,0.90
2023-03-25T12:16:56.282Z,0.80
2023-03-25T12:19:59.327Z,0.90
2023-03-25T12:22:48.510Z,0.90
2023-03-25T12:25:36.868Z,0.73
2023-03-25T12:28:44.790Z,1.00
2023-03-25T12:31:42.052Z,0.90
2023-03-25T12:34:32.730Z,0.80
2023-03-25T12:37:45.297Z,0.80
2023-03-25T12:40:43.375Z,0.93
2023-03-25T12:43:38.178Z,0.90
2023-03-25T12:46:26.419Z,1.40
2023-03-25T12:49:13.528Z,0.90
2023-03-25T12:51:59.071Z,1.03
2023-03-25T12:54:56.365Z,1.33
2023-03-25T12:57:37.799Z,1.00
2023-03-25T13:00:29.328Z,1.43
2023-03-25T13:03:26.568Z,0.90
2023-03-25T13:06:30.464Z,0.90
2023-03-25T13:09:04.467Z,1.43
2023-03-25T13:11:41.007Z,1.37
2023-03-25T13:14:17.235Z,2.53
2023-03-25T13:16:45.500Z,1.73
2023-03-25T13:19:22.839Z,1.40
2023-03-25T13:22:05.707Z,1.80
2023-03-25T13:24:47.248Z,1.50
2023-03-25T13:27:14.416Z,1.30
2023-03-25T13:29:51.316Z,1.70
2023-03-25T13:32:23.467Z,1.20
2023-03-25T13:35:00.592Z,1.37
2023-03-25T13:37:36.273Z,1.80
2023-03-25T13:40:14.859Z,1.03
2023-03-25T13:43:06.335Z,1.43
2023-03-25T13:45:46.427Z,1.07
2023-03-25T13:48:23.666Z,1.20
2023-03-25T13:50:50.417Z,1.47
2023-03-25T13:53:50.328Z,1.77
2023-03-25T13:56:25.908Z,1.70
2023-03-25T13:59:38.222Z,1.20
2023-03-25T14:02:23.169Z,1.40
2023-03-25T14:05:10.765Z,1.70
2023-03-25T14:07:49.442Z,1.57
2023-03-25T14:10:29.301Z,1.07
2023-03-25T14:13:01.827Z,1.17
2023-03-25T14:15:33.789Z,1.20
2023-03-25T14:18:01.085Z,1.30
2023-03-25T14:20:34.465Z,2.10
2023-03-25T14:23:07.666Z,1.53
2023-03-25T14:25:44.440Z,1.37
2023-03-25T14:28:18.218Z,1.30
2023-03-25T14:30:45.669Z,0.80
2023-03-25T14:33:12.895Z,1.17
2023-03-25T14:35:41.117Z,0.97
2023-03-25T14:38:07.565Z,1.33
2023-03-25T14:40:58.966Z,1.30
2023-03-25T14:43:40.209Z,1.53
2023-03-25T14:46:19.063Z,1.07
2023-03-25T14:48:50.256Z,1.17
2023-03-25T14:51:27.532Z,1.63
2023-03-25T14:54:02.191Z,1.90
2023-03-25T14:56:35.813Z,1.27
2023-03-25T14:59:13.679Z,1.30
2023-03-25T15:01:42.687Z,1.20
2023-03-25T15:04:22.625Z,1.70
2023-03-25T15:06:49.272Z,1.40
2023-03-25T15:09:18.134Z,1.67
2023-03-25T15:11:54.549Z,1.67
2023-03-25T15:14:26.146Z,1.23
2023-03-25T15:17:00.168Z,1.17
2023-03-25T15:19:27.880Z,1.37
2023-03-25T15:21:57.315Z,1.67
2023-03-25T15:24:31.872Z,1.20
2023-03-25T15:27:01.925Z,1.20
2023-03-25T15:29:50.497Z,1.30
2023-03-25T15:32:38.138Z,1.30
2023-03-25T15:35:31.668Z,1.30
2023-03-25T15:38:32.928Z,1.50
2023-03-25T15:41:24.527Z,1.10
2023-03-25T15:44:11.340Z,1.13
2023-03-25T15:46:50.095Z,1.00
2023-03-25T15:50:02.165Z,1.40
2023-03-25T15:52:41.811Z,1.13
2023-03-25T15:55:13.678Z,1.20
2023-03-25T15:57:54.042Z,1.20
2023-03-25T16:00:26.502Z,1.10
2023-03-25T16:03:02.456Z,1.17
2023-03-25T16:05:31.472Z,1.20
2023-03-25T16:08:01.166Z,0.90
2023-03-25T16:10:39.587Z,1.30
2023-03-25T16:13:10.930Z,1.20
2023-03-25T16:15:38.933Z,1.10
2023-03-25T16:18:09.740Z,1.60
2023-03-25T16:20:37.116Z,1.33
2023-03-25T16:23:06.414Z,1.13
2023-03-25T16:25:38.706Z,0.70
2023-03-25T16:28:17.997Z,1.07
2023-03-25T16:30:51.349Z,0.80
2023-03-25T16:33:21.644Z,0.97
2023-03-25T16:36:15.064Z,1.40
2023-03-25T16:38:41.641Z,0.87
2023-03-25T16:41:12.770Z,1.10
2023-03-25T16:43:39.669Z,1.30
2023-03-25T16:46:09.067Z,1.00
2023-03-25T16:48:41.333Z,0.97
2023-03-25T16:51:17.588Z,0.80
2023-03-25T16:53:44.931Z,1.17
2023-03-25T16:56:14.628Z,1.10
2023-03-25T16:58:57.833Z,1.07
2023-03-25T17:01:25.434Z,1.20
2023-03-25T17:04:05.401Z,1.20
2023-03-25T17:06:35.505Z,1.00
2023-03-25T17:09:04.706Z,0.83
2023-03-25T17:11:32.878Z,0.90
2023-03-25T17:14:07.696Z,1.50
2023-03-25T17:16:36.719Z,1.20
2023-03-25T17:19:04.627Z,1.10
2023-03-25T17:21:34.061Z,1.27
2023-03-25T17:24:26.899Z,1.27
2023-03-25T17:27:04.147Z,1.00
2023-03-25T17:29:30.714Z,1.23
2023-03-25T17:31:59.166Z,1.00
2023-03-25T17:34:26.460Z,1.43
2023-03-25T17:36:58.421Z,1.07
2023-03-25T17:39:27.856Z,1.47
2023-03-25T17:42:03.120Z,0.87
2023-03-25T17:44:40.433Z,1.20
2023-03-25T17:47:12.343Z,1.20
2023-03-25T17:49:38.752Z,0.90
2023-03-25T17:52:05.151Z,1.37
2023-03-25T17:54:31.623Z,1.50
2023-03-25T17:56:58.056Z,1.70
2023-03-25T17:59:25.891Z,1.10
2023-03-25T18:01:53.380Z,1.20
2023-03-25T18:04:23.166Z,1.37
2023-03-25T18:06:50.186Z,1.23
2023-03-25T18:09:24.404Z,1.70
2023-03-25T18:11:53.871Z,1.47
2023-03-25T18:14:21.781Z,1.20
2023-03-25T18:16:48.956Z,1.20
2023-03-25T18:19:21.204Z,1.70
2023-03-25T18:21:47.657Z,1.87
2023-03-25T18:24:14.809Z,2.03
2023-03-25T18:26:43.462Z,2.00
2023-03-25T18:29:17.878Z,1.70
2023-03-25T18:31:44.353Z,1.80
2023-03-25T18:34:13.031Z,5.37
2023-03-25T18:36:40.233Z,2.80
2023-03-25T18:39:10.995Z,1.77
2023-03-25T18:41:37.432Z,1.63
2023-03-25T18:44:03.969Z,2.43
2023-03-25T18:46:30.394Z,4.00
2023-03-25T18:49:02.198Z,4.30
2023-03-25T18:51:31.715Z,7.20
2023-03-25T18:53:58.380Z,4.20
2023-03-25T18:56:25.403Z,1.70
2023-03-25T18:58:52.719Z,2.03
2023-03-25T19:01:20.546Z,1.50
2023-03-25T19:03:47.851Z,1.00
2023-03-25T19:06:14.824Z,1.20
2023-03-25T19:08:43.485Z,1.50
2023-03-25T19:11:19.944Z,1.40
2023-03-25T19:13:48.560Z,2.87
2023-03-25T19:16:15.524Z,1.40
2023-03-25T19:18:42.028Z,1.17
2023-03-25T19:21:08.875Z,1.17
2023-03-25T19:23:36.381Z,1.50
2023-03-25T19:26:03.395Z,1.67
2023-03-25T19:28:29.966Z,1.37
2023-03-25T19:31:00.516Z,1.33
2023-03-25T19:33:31.064Z,1.27
2023-03-25T19:36:01.168Z,1.97
2023-03-25T19:38:28.674Z,1.17
2023-03-25T19:41:06.732Z,1.50
2023-03-25T19:43:33.422Z,1.50
2023-03-25T19:46:00.879Z,1.20
2023-03-25T19:48:29.692Z,2.27
2023-03-25T19:50:56.335Z,1.50
2023-03-25T19:53:23.182Z,1.20
2023-03-25T19:55:51.444Z,1.20
2023-03-25T19:58:20.257Z,1.40
2023-03-25T20:00:47.533Z,1.40
2023-03-25T20:03:14.463Z,1.53
2023-03-25T20:05:41.991Z,1.30
2023-03-25T20:08:09.514Z,1.63
2023-03-25T20:10:39.021Z,1.63
2023-03-25T20:13:06.836Z,1.90
2023-03-25T20:15:33.465Z,1.37
2023-03-25T20:18:00.212Z,1.83
2023-03-25T20:20:26.737Z,1.73
2023-03-25T20:22:53.285Z,1.50
2023-03-25T20:25:20.073Z,2.43
2023-03-25T20:27:46.968Z,2.63
2023-03-25T20:30:16.667Z,3.70
2023-03-25T20:32:44.358Z,2.60
2023-03-25T20:35:14.084Z,3.07
2023-03-25T20:37:42.235Z,2.80
2023-03-25T20:40:11.958Z,2.80
2023-03-25T20:42:42.971Z,2.57
2023-03-25T20:45:12.307Z,2.07
2023-03-25T20:47:38.837Z,2.67
2023-03-25T20:50:07.722Z,2.03
2023-03-25T20:52:35.894Z,3.60
2023-03-25T20:55:02.579Z,1.70
2023-03-25T20:57:29.089Z,1.90
2023-03-25T20:59:56.487Z,1.87
2023-03-25T21:02:23.062Z,2.10
2023-03-25T21:04:49.587Z,1.53
2023-03-25T21:07:19.216Z,1.90
2023-03-25T21:09:49.577Z,1.57
2023-03-25T21:12:16.429Z,2.17
2023-03-25T21:14:42.895Z,1.60
2023-03-25T21:17:09.941Z,1.93
2023-03-25T21:19:36.649Z,1.93
2023-03-25T21:22:03.195Z,1.43
2023-03-25T21:24:31.308Z,1.53
2023-03-25T21:26:57.700Z,2.00
2023-03-25T21:29:24.087Z,1.77
2023-03-25T21:31:50.650Z,1.07
2023-03-25T21:34:17.190Z,1.47
2023-03-25T21:36:43.774Z,1.13
2023-03-25T21:39:10.548Z,2.50
2023-03-25T21:41:37.387Z,7.83
2023-03-25T21:44:05.334Z,4.03
2023-03-25T21:46:33.446Z,5.43
2023-03-25T21:49:01.356Z,3.60
2023-03-25T21:51:32.462Z,2.00
2023-03-25T21:54:00.292Z,1.73
2023-03-25T21:56:30.793Z,2.20
2023-03-25T21:58:57.765Z,1.50
2023-03-25T22:01:28.797Z,1.60
2023-03-25T22:03:57.229Z,1.73
2023-03-25T22:06:29.474Z,2.33
2023-03-25T22:09:03.682Z,1.70
2023-03-25T22:11:30.197Z,1.50
2023-03-25T22:13:57.446Z,1.63
2023-03-25T22:16:24.669Z,1.87
2023-03-25T22:18:51.649Z,1.47
2023-03-25T22:21:21.357Z,1.80
2023-03-25T22:23:49.969Z,1.80
2023-03-25T22:26:17.601Z,1.80
2023-03-25T22:28:44.717Z,1.80
2023-03-25T22:31:17.313Z,2.47
2023-03-25T22:33:44.402Z,1.93
2023-03-25T22:36:14.035Z,1.63
2023-03-25T22:38:44.414Z,1.67
2023-03-25T22:41:12.689Z,2.47
2023-03-25T22:43:39.652Z,2.40
2023-03-25T22:46:07.545Z,2.00
2023-03-25T22:48:34.976Z,2.17
2023-03-25T22:51:01.926Z,2.10
2023-03-25T22:53:28.474Z,1.73
2023-03-25T22:55:56.795Z,2.90
2023-03-25T22:58:28.036Z,1.80
2023-03-25T23:00:56.038Z,2.13
2023-03-25T23:03:23.819Z,2.43
2023-03-25T23:06:05.836Z,2.10
2023-03-25T23:08:35.108Z,2.80
2023-03-25T23:11:07.180Z,2.40
2023-03-25T23:13:34.563Z,1.60
2023-03-25T23:16:06.902Z,2.23
2023-03-25T23:18:34.376Z,3.03
2023-03-25T23:21:01.227Z,1.97
2023-03-25T23:23:28.874Z,2.00
2023-03-25T23:26:07.311Z,3.23
2023-03-25T23:28:36.712Z,2.90
2023-03-25T23:31:09.669Z,2.60
2023-03-25T23:33:36.771Z,2.40
2023-03-25T23:36:05.318Z,2.63
2023-03-25T23:38:32.606Z,2.27
2023-03-25T23:41:07.755Z,2.70
2023-03-25T23:43:34.886Z,2.40
2023-03-25T23:46:01.926Z,2.90
2023-03-25T23:48:29.184Z,2.90
2023-03-25T23:50:56.661Z,3.30
2023-03-25T23:53:27.360Z,2.70
2023-03-25T23:55:55.917Z,2.40
2023-03-25T23:58:25.126Z,3.00
